Time;durP1;ratioP1;P1;durP2;ratioP2;P2;SDS_P1;SDS_P2;PMS_P1;PMS_P2;Temp;Humidity;BMP_temperature;BMP_pressure;BME280_temperature;BME280_humidity;BME280_pressure;Samples;Min_cycle;Max_cycle;Signal;HPM_P1;HPM_P2
2021/10/07 07:19:33;;;;;;;2.80;1.60;;;17.00;99.90;;;;;;2385975;23;20234;-80
2021/10/07 07:22:03;;;;;;;4.00;1.67;;;17.40;99.90;;;;;;4949870;29;20311;-78
2021/10/07 07:24:30;;;;;;;4.57;1.63;;;17.60;99.90;;;;;;4949541;29;20258;-81
2021/10/07 07:26:56;;;;;;;2.50;1.70;;;17.70;99.90;;;;;;4958766;29;20231;-80
2021/10/07 07:29:23;;;;;;;5.57;2.25;;;18.10;99.90;;;;;;4959298;29;20208;-79
2021/10/07 07:31:50;;;;;;;8.73;3.72;;;18.30;99.90;;;;;;4959276;29;20212;-79
2021/10/07 07:34:17;;;;;;;8.63;3.08;;;18.80;99.90;;;;;;4959019;29;20662;-79
2021/10/07 07:36:44;;;;;;;13.00;6.38;;;18.90;99.90;;;;;;4948099;29;20230;-78
2021/10/07 07:39:12;;;;;;;5.47;2.78;;;19.10;99.90;;;;;;4939752;29;20236;-79
2021/10/07 07:41:40;;;;;;;3.75;2.42;;;19.10;99.90;;;;;;4939473;29;20209;-75
2021/10/07 07:44:07;;;;;;;6.50;3.70;;;19.30;99.90;;;;;;4939318;29;20228;-78
2021/10/07 07:46:35;;;;;;;4.47;2.38;;;19.30;99.90;;;;;;4940324;29;20229;-79
2021/10/07 07:49:02;;;;;;;4.75;2.22;;;19.20;99.90;;;;;;4948693;29;20205;-76
2021/10/07 07:51:32;;;;;;;3.05;2.13;;;19.30;99.90;;;;;;4951123;29;20295;-78
2021/10/07 07:53:59;;;;;;;4.95;2.65;;;19.50;99.90;;;;;;4949475;29;20208;-79
2021/10/07 07:56:27;;;;;;;7.57;2.63;;;19.50;99.90;;;;;;4948720;29;20233;-80
2021/10/07 07:58:54;;;;;;;3.75;2.65;;;19.60;99.90;;;;;;4952681;29;20300;-77
2021/10/07 08:01:21;;;;;;;7.15;2.92;;;19.70;99.90;;;;;;4951235;29;20236;-79
2021/10/07 08:03:49;;;;;;;5.18;2.60;;;19.60;99.90;;;;;;4945486;29;20209;-78
2021/10/07 08:06:15;;;;;;;5.63;2.70;;;19.50;99.90;;;;;;4939004;29;20707;-79
2021/10/07 08:08:42;;;;;;;7.18;2.78;;;19.50;99.90;;;;;;4939186;29;20209;-76
2021/10/07 08:11:10;;;;;;;9.35;3.60;;;19.60;99.90;;;;;;4938831;29;20212;-78
2021/10/07 08:13:38;;;;;;;5.00;2.42;;;19.90;99.90;;;;;;4952361;29;20206;-79
2021/10/07 08:16:05;;;;;;;3.85;2.20;;;20.10;99.90;;;;;;4936466;29;20233;-79
2021/10/07 08:18:32;;;;;;;4.40;2.17;;;19.90;99.90;;;;;;4919639;29;20210;-79
2021/10/07 08:20:59;;;;;;;5.80;2.38;;;19.90;99.90;;;;;;4919231;29;20241;-78
2021/10/07 08:23:28;;;;;;;3.80;2.60;;;19.50;99.90;;;;;;4919025;29;20571;-76
2021/10/07 08:25:57;;;;;;;6.53;2.70;;;19.50;99.90;;;;;;4919220;29;20206;-73
2021/10/07 08:28:24;;;;;;;4.57;2.70;;;19.20;99.90;;;;;;4919440;29;20213;-76
2021/10/07 08:30:53;;;;;;;5.68;2.97;;;19.10;99.90;;;;;;4918980;29;20213;-79
2021/10/07 08:33:19;;;;;;;6.50;2.60;;;19.30;99.90;;;;;;4919503;29;20216;-83
2021/10/07 08:35:48;;;;;;;6.38;2.63;;;19.20;99.90;;;;;;4920743;29;20209;-86
2021/10/07 08:38:15;;;;;;;8.18;2.78;;;19.40;99.90;;;;;;4919479;29;20609;-88
2021/10/07 08:40:42;;;;;;;4.97;2.20;;;19.80;99.90;;;;;;4921044;29;20244;-89
2021/10/07 08:43:09;;;;;;;5.30;2.47;;;20.30;99.90;;;;;;4920571;29;20550;-87
2021/10/07 08:45:36;;;;;;;6.75;2.80;;;20.10;99.90;;;;;;4922537;29;20239;-83
2021/10/07 08:48:05;;;;;;;7.45;2.85;;;20.20;99.90;;;;;;4920037;29;20217;-70
2021/10/07 08:50:32;;;;;;;4.90;2.28;;;20.00;99.90;;;;;;4919713;29;20255;-85
2021/10/07 08:53:00;;;;;;;6.10;1.80;;;19.80;99.90;;;;;;4955968;29;20211;-84
2021/10/07 08:55:27;;;;;;;3.30;2.00;;;19.80;99.90;;;;;;4959283;29;20215;-81
2021/10/07 08:57:54;;;;;;;3.13;2.00;;;19.70;99.90;;;;;;4959841;29;20235;-78
2021/10/07 09:00:20;;;;;;;5.05;2.03;;;19.60;99.90;;;;;;4959676;29;20235;-77
2021/10/07 09:02:47;;;;;;;4.03;2.00;;;19.30;99.90;;;;;;4961374;29;20232;-85
2021/10/07 09:05:19;;;;;;;5.50;2.40;;;19.20;99.90;;;;;;4959372;29;20215;-81
2021/10/07 09:08:00;;;;;;;3.03;1.85;;;18.90;99.90;;;;;;4961956;29;20235;-84
2021/10/07 09:10:43;;;;;;;11.65;5.90;;;18.80;99.90;;;;;;4962347;29;20212;-84
2021/10/07 09:13:14;;;;;;;6.75;2.25;;;18.70;99.90;;;;;;4948124;29;20205;-84
2021/10/07 09:15:42;;;;;;;5.70;2.10;;;18.70;99.90;;;;;;4940892;29;20209;-83
2021/10/07 09:18:12;;;;;;;6.28;2.45;;;18.70;99.90;;;;;;4940861;29;20208;-79
2021/10/07 09:20:44;;;;;;;5.13;2.55;;;18.50;99.90;;;;;;4921896;29;20240;-85
2021/10/07 09:23:12;;;;;;;5.73;2.20;;;18.40;99.90;;;;;;4943715;29;20205;-83
2021/10/07 09:26:04;;;;;;;5.03;2.70;;;18.40;99.90;;;;;;4947020;29;20223;-84
2021/10/07 09:28:48;;;;;;;4.60;1.80;;;18.40;99.90;;;;;;4940570;29;20223;-84
2021/10/07 09:31:15;;;;;;;6.27;2.20;;;18.30;99.90;;;;;;4939291;29;20216;-85
2021/10/07 09:33:44;;;;;;;4.33;2.53;;;18.30;99.90;;;;;;4938517;29;20225;-87
2021/10/07 09:36:18;;;;;;;3.70;2.03;;;18.20;99.90;;;;;;4937208;29;20285;-84
2021/10/07 09:38:47;;;;;;;6.83;2.23;;;18.30;99.90;;;;;;4937723;29;20213;-85
2021/10/07 09:41:17;;;;;;;4.23;1.73;;;18.10;99.90;;;;;;4937471;29;20244;-86
2021/10/07 09:43:46;;;;;;;5.20;1.90;;;18.10;99.90;;;;;;4936710;29;20209;-81
2021/10/07 09:46:13;;;;;;;4.20;2.37;;;17.80;99.90;;;;;;4952901;29;20232;-81
2021/10/07 09:48:41;;;;;;;6.53;2.30;;;17.80;99.90;;;;;;4955180;29;20212;-80
2021/10/07 09:51:16;;;;;;;5.40;2.40;;;17.90;99.90;;;;;;4955484;29;20263;-81
2021/10/07 09:53:46;;;;;;;4.67;2.47;;;17.90;99.90;;;;;;4956038;29;20224;-81
2021/10/07 09:56:26;;;;;;;6.47;2.50;;;17.90;99.90;;;;;;4955704;29;20251;-79
2021/10/07 09:58:55;;;;;;;4.27;2.20;;;17.90;99.90;;;;;;4955601;29;21079;-79
2021/10/07 10:01:22;;;;;;;5.80;2.30;;;17.90;99.90;;;;;;4954441;29;20245;-80
2021/10/07 10:03:49;;;;;;;6.60;2.90;;;17.80;99.90;;;;;;4947853;29;20698;-79
2021/10/07 10:06:18;;;;;;;5.47;1.90;;;17.80;99.90;;;;;;4937921;29;20224;-82
2021/10/07 10:08:45;;;;;;;3.63;2.07;;;17.90;99.90;;;;;;4955506;29;20302;-84
2021/10/07 10:11:12;;;;;;;5.60;2.67;;;18.00;99.90;;;;;;4955592;29;20215;-84
2021/10/07 10:13:39;;;;;;;4.00;2.37;;;18.10;99.90;;;;;;4956666;29;20208;-84
2021/10/07 10:16:07;;;;;;;4.80;2.57;;;18.10;99.90;;;;;;4946136;29;20235;-83
2021/10/07 10:18:35;;;;;;;5.60;2.43;;;18.20;99.90;;;;;;4936078;29;20220;-82
2021/10/07 10:21:04;;;;;;;3.93;2.30;;;18.00;99.90;;;;;;4935469;29;20241;-83
2021/10/07 10:23:39;;;;;;;3.80;2.00;;;18.00;99.90;;;;;;4935940;29;20209;-82
2021/10/07 10:26:11;;;;;;;4.33;2.23;;;18.10;99.90;;;;;;4934556;29;20706;-77
2021/10/07 10:28:53;;;;;;;4.50;2.53;;;18.00;99.90;;;;;;4935397;29;20678;-72
2021/10/07 10:31:32;;;;;;;5.10;2.40;;;18.00;99.90;;;;;;4936284;29;20209;-78
2021/10/07 10:34:10;;;;;;;3.43;2.23;;;17.90;99.90;;;;;;4936033;29;20231;-77
2021/10/07 10:36:41;;;;;;;2.80;1.90;;;17.90;99.90;;;;;;4935627;29;20258;-78
2021/10/07 10:39:15;;;;;;;3.63;1.93;;;18.00;99.90;;;;;;4934738;29;20576;-76
2021/10/07 10:41:47;;;;;;;3.60;2.07;;;18.10;99.90;;;;;;4935592;29;20232;-74
2021/10/07 10:44:48;;;;;;;3.80;2.13;;;18.30;99.90;;;;;;4936048;29;20572;-78
2021/10/07 10:47:21;;;;;;;5.63;1.83;;;18.40;99.90;;;;;;4858391;29;20314;-74
2021/10/07 10:49:57;;;;;;;4.40;1.80;;;18.50;99.90;;;;;;4923262;29;20216;-75
2021/10/07 10:52:25;;;;;;;6.17;2.10;;;18.60;99.90;;;;;;4935647;29;20212;-73
2021/10/07 10:54:57;;;;;;;5.03;1.92;;;18.90;99.90;;;;;;4935485;29;20215;-75
2021/10/07 10:57:29;;;;;;;6.20;1.35;;;18.80;99.90;;;;;;4935393;29;20231;-75
2021/10/07 11:00:07;;;;;;;2.20;1.37;;;19.00;99.90;;;;;;4935290;29;20213;-72
2021/10/07 11:02:35;;;;;;;3.53;1.10;;;19.20;99.90;;;;;;4935696;29;20299;-72
2021/10/07 11:05:13;;;;;;;3.40;1.60;;;19.30;99.90;;;;;;4935785;29;20209;-74
2021/10/07 11:07:40;;;;;;;3.70;1.30;;;19.40;99.90;;;;;;4935473;29;20229;-72
2021/10/07 11:10:17;;;;;;;2.83;1.30;;;19.30;99.90;;;;;;4935776;29;20664;-74
2021/10/07 11:12:50;;;;;;;6.57;1.50;;;19.30;99.90;;;;;;4935718;29;20299;-76
2021/10/07 11:15:19;;;;;;;2.08;1.45;;;19.30;99.90;;;;;;4935436;29;20685;-73
2021/10/07 11:17:47;;;;;;;3.50;1.20;;;19.50;99.90;;;;;;4935601;29;20224;-74
2021/10/07 11:20:16;;;;;;;3.25;1.23;;;19.40;99.90;;;;;;4935196;29;20300;-73
2021/10/07 11:22:58;;;;;;;2.85;1.27;;;19.40;99.90;;;;;;4935307;29;20211;-77
2021/10/07 11:25:27;;;;;;;2.58;1.10;;;19.40;99.90;;;;;;4935458;29;20212;-73
2021/10/07 11:27:54;;;;;;;6.28;1.05;;;19.30;99.90;;;;;;4935291;29;20235;-73
2021/10/07 11:30:23;;;;;;;3.67;1.13;;;19.30;99.90;;;;;;4935671;29;20240;-78
2021/10/07 11:32:50;;;;;;;3.77;1.03;;;19.20;99.90;;;;;;4935418;29;20212;-75
2021/10/07 11:35:19;;;;;;;1.92;1.05;;;19.40;99.90;;;;;;4935111;29;20209;-72
2021/10/07 11:38:11;;;;;;;3.90;1.05;;;19.50;99.90;;;;;;4935250;29;20233;-78
2021/10/07 11:40:51;;;;;;;2.00;0.90;;;19.40;99.90;;;;;;4916904;29;20707;-76
2021/10/07 11:43:20;;;;;;;4.25;1.35;;;19.50;99.90;;;;;;4935305;29;20205;-73
2021/10/07 11:45:49;;;;;;;3.42;1.67;;;19.50;99.90;;;;;;4935064;29;20222;-72
2021/10/07 11:48:18;;;;;;;2.13;1.17;;;19.40;99.90;;;;;;4935083;29;20304;-77
2021/10/07 11:50:47;;;;;;;4.30;1.00;;;19.40;99.90;;;;;;4935166;29;20299;-76
2021/10/07 11:53:17;;;;;;;1.40;1.00;;;19.40;99.90;;;;;;4935296;29;20299;-72
2021/10/07 11:55:48;;;;;;;2.92;1.30;;;19.10;99.90;;;;;;4935089;29;20215;-76
2021/10/07 11:58:15;;;;;;;3.47;1.50;;;19.30;99.90;;;;;;4934950;29;20212;-76
2021/10/07 12:00:48;;;;;;;4.78;1.38;;;19.40;99.90;;;;;;4934764;29;20692;-75
2021/10/07 12:03:24;;;;;;;3.50;1.10;;;19.50;99.90;;;;;;4935268;29;20308;-75
2021/10/07 12:05:56;;;;;;;4.50;1.10;;;19.60;99.90;;;;;;4936692;29;20240;-72
2021/10/07 12:08:25;;;;;;;4.20;1.30;;;19.90;99.90;;;;;;4938559;29;20213;-76
2021/10/07 12:10:55;;;;;;;3.42;1.10;;;19.90;99.90;;;;;;4938166;29;20213;-74
2021/10/07 12:13:24;;;;;;;3.42;0.95;;;19.90;99.90;;;;;;4938770;29;20215;-72
2021/10/07 12:15:54;;;;;;;2.58;0.98;;;19.70;99.90;;;;;;4938512;29;20209;-71
2021/10/07 12:18:23;;;;;;;2.33;1.25;;;19.70;99.90;;;;;;4938710;29;20660;-74
2021/10/07 12:21:06;;;;;;;2.92;1.52;;;19.90;99.90;;;;;;4938138;29;20625;-77
2021/10/07 12:24:01;;;;;;;4.72;1.30;;;19.90;99.90;;;;;;4938306;29;20212;-73
2021/10/07 12:26:38;;;;;;;2.88;1.50;;;20.10;99.90;;;;;;4931940;29;20229;-76
2021/10/07 12:29:12;;;;;;;2.90;1.15;;;19.90;99.90;;;;;;4938128;29;20303;-75
2021/10/07 12:31:41;;;;;;;4.25;1.20;;;19.90;99.90;;;;;;4938129;29;20295;-72
2021/10/07 12:34:10;;;;;;;4.60;1.85;;;19.40;99.90;;;;;;4938245;29;20308;-71
2021/10/07 12:36:39;;;;;;;2.63;1.42;;;19.30;99.90;;;;;;4937924;29;20235;-71
2021/10/07 12:39:08;;;;;;;2.60;1.38;;;19.40;99.90;;;;;;4938146;29;20300;-76
2021/10/07 12:41:40;;;;;;;2.75;1.30;;;19.50;99.90;;;;;;4937951;29;20319;-74
2021/10/07 12:44:08;;;;;;;3.13;1.35;;;19.60;99.90;;;;;;4937942;29;20751;-76
2021/10/07 12:46:45;;;;;;;3.88;1.50;;;19.40;99.90;;;;;;4938065;29;20235;-76
2021/10/07 12:49:12;;;;;;;4.03;1.27;;;19.50;99.90;;;;;;4932040;29;20300;-73
2021/10/07 12:51:45;;;;;;;3.55;1.52;;;19.40;99.90;;;;;;4936482;29;20579;-73
2021/10/07 12:54:13;;;;;;;4.80;1.50;;;19.20;99.90;;;;;;4936855;29;20724;-72
2021/10/07 12:56:44;;;;;;;2.58;1.10;;;19.00;99.90;;;;;;4936371;29;20259;-72
2021/10/07 12:59:11;;;;;;;3.70;1.48;;;19.00;99.90;;;;;;4936454;29;20647;-75
2021/10/07 13:01:45;;;;;;;2.67;1.20;;;18.80;99.90;;;;;;4936440;29;20436;-74
2021/10/07 13:04:23;;;;;;;4.75;1.20;;;19.00;99.90;;;;;;4936031;29;20291;-73
2021/10/07 13:06:54;;;;;;;2.40;0.90;;;19.30;99.90;;;;;;4936549;29;20312;-76
2021/10/07 13:09:20;;;;;;;3.92;1.00;;;19.60;99.90;;;;;;4936408;29;20568;-75
2021/10/07 13:11:50;;;;;;;2.05;0.80;;;19.80;99.90;;;;;;4935922;29;20215;-73
2021/10/07 13:14:19;;;;;;;3.30;0.90;;;19.80;99.90;;;;;;4936468;29;20216;-73
2021/10/07 13:16:46;;;;;;;2.75;1.08;;;20.00;99.90;;;;;;4965842;23;20237;-73
2021/10/07 13:19:14;;;;;;;2.08;1.20;;;19.60;99.90;;;;;;4973315;28;20207;-75
2021/10/07 13:21:41;;;;;;;2.03;1.00;;;19.60;99.90;;;;;;4973894;28;20321;-73
2021/10/07 13:24:08;;;;;;;1.50;0.88;;;19.50;99.90;;;;;;4974378;28;20290;-74
2021/10/07 13:26:39;;;;;;;3.33;0.90;;;19.20;99.90;;;;;;4975635;28;20227;-77
2021/10/07 13:29:07;;;;;;;3.57;0.87;;;19.00;99.90;;;;;;4975662;28;20211;-76
2021/10/07 13:31:34;;;;;;;2.50;0.97;;;18.60;99.90;;;;;;4971076;28;20734;-75
2021/10/07 13:34:01;;;;;;;2.03;0.70;;;18.50;99.90;;;;;;4974058;28;20242;-74
2021/10/07 13:36:28;;;;;;;3.10;0.90;;;18.40;99.90;;;;;;4974634;28;20314;-75
2021/10/07 13:38:55;;;;;;;1.08;0.77;;;18.20;99.90;;;;;;4975622;28;20203;-77
2021/10/07 13:41:22;;;;;;;1.08;0.90;;;17.90;99.90;;;;;;4975300;28;20231;-74
2021/10/07 13:43:49;;;;;;;1.70;0.80;;;17.90;99.90;;;;;;4975360;28;20323;-76
2021/10/07 13:46:18;;;;;;;4.37;0.90;;;17.80;99.90;;;;;;4975128;28;20226;-76
2021/10/07 13:48:44;;;;;;;4.57;0.90;;;17.70;99.90;;;;;;4975149;28;20670;-75
2021/10/07 13:51:12;;;;;;;1.13;0.80;;;17.70;99.90;;;;;;4975427;28;20310;-78
2021/10/07 13:53:39;;;;;;;4.17;1.10;;;17.90;99.90;;;;;;4975101;28;20207;-74
2021/10/07 13:56:07;;;;;;;2.43;0.90;;;18.20;99.90;;;;;;4974940;28;20231;-75
2021/10/07 13:58:34;;;;;;;1.13;0.70;;;18.20;99.90;;;;;;4975395;28;20598;-76
2021/10/07 14:01:01;;;;;;;7.00;0.83;;;18.20;99.90;;;;;;4974686;28;20294;-77
2021/10/07 14:03:29;;;;;;;1.90;0.73;;;18.20;99.90;;;;;;4974917;28;20737;-75
2021/10/07 14:05:56;;;;;;;3.47;0.90;;;18.10;99.90;;;;;;4974835;28;20294;-74
2021/10/07 14:08:23;;;;;;;2.97;0.87;;;18.10;99.90;;;;;;4974834;28;20211;-74
2021/10/07 14:10:50;;;;;;;1.53;0.87;;;18.10;99.90;;;;;;4974758;28;20298;-74
2021/10/07 14:13:17;;;;;;;2.17;0.80;;;18.20;99.90;;;;;;4974609;28;20246;-77
2021/10/07 14:15:44;;;;;;;2.07;0.87;;;18.10;99.90;;;;;;4974155;28;20214;-73
2021/10/07 14:18:11;;;;;;;2.30;0.83;;;18.20;99.90;;;;;;4973927;28;20215;-72
2021/10/07 14:20:41;;;;;;;3.13;1.10;;;18.10;99.90;;;;;;4974496;28;20302;-74
2021/10/07 14:23:08;;;;;;;2.05;0.80;;;18.20;99.90;;;;;;4974414;28;20266;-74
2021/10/07 14:25:35;;;;;;;1.67;1.08;;;18.30;99.90;;;;;;4974611;28;20203;-75
2021/10/07 14:28:04;;;;;;;1.73;0.80;;;18.30;99.90;;;;;;4974371;28;20317;-77
2021/10/07 14:30:31;;;;;;;2.43;1.33;;;18.40;99.90;;;;;;4974587;28;20238;-74
2021/10/07 14:32:58;;;;;;;2.10;0.90;;;18.40;99.90;;;;;;4974664;28;20207;-75
2021/10/07 14:35:25;;;;;;;3.20;1.13;;;18.40;99.90;;;;;;4974535;28;20207;-76
2021/10/07 14:37:54;;;;;;;3.07;0.90;;;18.40;99.90;;;;;;4974545;28;20338;-77
2021/10/07 14:40:21;;;;;;;7.23;1.30;;;18.30;99.90;;;;;;4974488;28;20254;-76
2021/10/07 14:42:49;;;;;;;1.40;0.70;;;18.30;99.90;;;;;;4974592;28;20246;-77
2021/10/07 14:45:16;;;;;;;2.78;0.75;;;18.20;99.90;;;;;;4974631;28;20290;-74
2021/10/07 14:47:43;;;;;;;3.47;0.80;;;18.30;99.90;;;;;;4974338;28;20231;-75
2021/10/07 14:50:10;;;;;;;1.60;0.83;;;18.40;99.90;;;;;;4974315;28;20227;-77
2021/10/07 14:52:38;;;;;;;2.47;0.70;;;18.30;99.90;;;;;;4974385;28;20309;-77
2021/10/07 14:55:09;;;;;;;2.13;0.60;;;18.20;99.90;;;;;;4974153;28;20311;-76
2021/10/07 14:57:36;;;;;;;0.90;0.60;;;18.30;99.90;;;;;;4974023;28;20697;-75
2021/10/07 15:00:05;;;;;;;1.10;0.57;;;18.20;99.90;;;;;;4974188;28;20203;-75
2021/10/07 15:02:32;;;;;;;1.40;0.63;;;18.10;99.90;;;;;;4973966;28;20239;-75
2021/10/07 15:04:59;;;;;;;4.53;0.83;;;18.20;99.90;;;;;;4974069;28;20217;-72
2021/10/07 15:07:27;;;;;;;2.93;0.80;;;18.10;99.90;;;;;;4973893;28;20585;-77
2021/10/07 15:09:54;;;;;;;1.90;0.40;;;18.20;99.90;;;;;;4974449;28;20298;-76
2021/10/07 15:12:22;;;;;;;2.53;0.73;;;18.20;99.90;;;;;;4974019;28;20294;-76
2021/10/07 15:14:49;;;;;;;1.97;0.70;;;18.20;99.90;;;;;;4974120;28;20218;-75
2021/10/07 15:17:16;;;;;;;5.60;0.70;;;18.20;99.90;;;;;;4973750;28;20801;-76
2021/10/07 15:19:42;;;;;;;1.60;0.70;;;18.20;99.90;;;;;;4973818;28;20211;-77
2021/10/07 15:22:11;;;;;;;1.73;0.63;;;18.10;99.90;;;;;;4973529;28;20325;-75
2021/10/07 15:24:38;;;;;;;2.73;0.80;;;18.10;99.90;;;;;;4974000;28;20544;-75
2021/10/07 15:27:05;;;;;;;1.70;0.63;;;18.10;99.90;;;;;;4973750;28;20262;-75
2021/10/07 15:29:34;;;;;;;2.60;0.70;;;18.10;99.90;;;;;;4974023;28;20233;-75
2021/10/07 15:32:02;;;;;;;1.07;0.77;;;18.10;99.90;;;;;;4973798;28;20211;-76
2021/10/07 15:34:29;;;;;;;2.03;0.70;;;18.00;99.90;;;;;;4973709;28;20745;-74
2021/10/07 15:36:56;;;;;;;2.57;0.60;;;17.90;99.90;;;;;;4973610;28;20556;-75
2021/10/07 15:39:23;;;;;;;2.97;0.63;;;18.00;99.90;;;;;;4974157;28;20242;-75
2021/10/07 15:41:51;;;;;;;1.63;0.80;;;17.90;99.90;;;;;;4977279;28;20230;-76
2021/10/07 15:44:18;;;;;;;4.07;0.80;;;17.90;99.90;;;;;;4977450;28;20211;-75
2021/10/07 15:46:46;;;;;;;1.00;0.70;;;18.00;99.90;;;;;;4977061;28;20223;-74
2021/10/07 15:49:13;;;;;;;1.50;0.60;;;17.90;99.90;;;;;;4977211;28;20211;-75
2021/10/07 15:51:40;;;;;;;1.97;0.80;;;17.80;99.90;;;;;;4977247;28;20569;-76
2021/10/07 15:54:07;;;;;;;2.17;0.60;;;17.70;99.90;;;;;;4977334;28;20211;-75
2021/10/07 15:56:35;;;;;;;2.33;0.70;;;17.70;99.90;;;;;;4977213;28;20235;-75
2021/10/07 15:59:01;;;;;;;4.97;0.70;;;17.60;99.90;;;;;;4977508;28;20203;-75
2021/10/07 16:01:31;;;;;;;1.10;0.80;;;17.50;99.90;;;;;;4977158;28;20207;-75
2021/10/07 16:03:59;;;;;;;1.60;0.77;;;17.50;99.90;;;;;;4977263;28;20306;-75
2021/10/07 16:06:27;;;;;;;1.57;0.70;;;17.40;99.90;;;;;;4976947;28;20238;-76
2021/10/07 16:08:54;;;;;;;2.17;0.73;;;17.30;99.90;;;;;;4977307;28;20207;-73
2021/10/07 16:11:21;;;;;;;1.83;0.60;;;17.20;99.90;;;;;;4977419;28;20618;-76
2021/10/07 16:13:48;;;;;;;1.23;0.80;;;17.20;99.90;;;;;;4977151;28;20215;-75
2021/10/07 16:16:15;;;;;;;1.27;0.60;;;17.20;99.90;;;;;;4977010;28;20227;-75
2021/10/07 16:18:42;;;;;;;1.27;0.60;;;17.10;99.90;;;;;;4976758;28;20215;-75
2021/10/07 16:21:10;;;;;;;2.03;0.80;;;17.00;99.90;;;;;;4977057;28;20215;-75
2021/10/07 16:23:38;;;;;;;2.13;0.73;;;16.90;99.90;;;;;;4977097;28;20235;-76
2021/10/07 16:26:07;;;;;;;1.80;0.70;;;16.80;99.90;;;;;;4976839;28;20231;-77
2021/10/07 16:28:35;;;;;;;2.37;0.70;;;16.70;99.90;;;;;;4976617;28;20207;-77
2021/10/07 16:31:02;;;;;;;1.50;0.80;;;16.70;99.90;;;;;;4964306;28;20200;-74
2021/10/07 16:33:30;;;;;;;1.77;0.80;;;16.60;99.90;;;;;;4956253;29;20218;-76
2021/10/07 16:35:58;;;;;;;3.77;0.90;;;16.30;99.90;;;;;;4957257;28;20232;-76
2021/10/07 16:38:26;;;;;;;2.23;0.80;;;16.20;99.90;;;;;;4957465;29;20226;-77
2021/10/07 16:40:55;;;;;;;1.87;0.70;;;16.20;99.90;;;;;;4957042;29;20627;-75
2021/10/07 16:43:22;;;;;;;4.63;1.27;;;16.10;99.90;;;;;;4956775;29;20236;-78
2021/10/07 16:45:49;;;;;;;6.40;1.30;;;15.90;99.90;;;;;;4957185;28;20212;-75
2021/10/07 16:48:16;;;;;;;3.97;1.57;;;15.80;99.90;;;;;;4957183;29;20208;-76
2021/10/07 16:50:43;;;;;;;4.13;2.10;;;15.80;99.90;;;;;;4961232;28;20208;-77
2021/10/07 16:53:11;;;;;;;5.23;2.07;;;15.70;99.90;;;;;;4976466;28;20211;-75
2021/10/07 16:55:40;;;;;;;4.83;1.50;;;15.60;99.90;;;;;;4975836;28;20211;-76
2021/10/07 16:58:07;;;;;;;4.00;1.40;;;15.50;99.90;;;;;;4975932;28;20210;-77
2021/10/07 17:00:35;;;;;;;3.37;1.30;;;15.30;99.90;;;;;;4972683;28;20212;-77
2021/10/07 17:03:02;;;;;;;4.20;1.10;;;15.10;99.90;;;;;;4956945;29;20311;-76
2021/10/07 17:05:29;;;;;;;2.73;0.93;;;15.00;99.90;;;;;;4956510;29;20204;-76
2021/10/07 17:07:56;;;;;;;2.77;1.30;;;15.00;99.90;;;;;;4956403;29;20587;-77
2021/10/07 17:10:23;;;;;;;4.13;1.00;;;15.00;99.90;;;;;;4958246;28;20598;-76
2021/10/07 17:12:52;;;;;;;3.27;1.00;;;14.90;99.90;;;;;;4975768;28;20211;-77
2021/10/07 17:15:19;;;;;;;5.67;1.00;;;14.80;99.90;;;;;;4961201;28;20206;-75
2021/10/07 17:17:46;;;;;;;2.60;1.20;;;14.70;99.90;;;;;;4956123;29;20232;-76
2021/10/07 17:20:17;;;;;;;1.83;0.87;;;14.60;99.90;;;;;;4956512;28;20208;-75
2021/10/07 17:22:44;;;;;;;3.53;0.90;;;14.60;99.90;;;;;;4975868;28;20230;-78
2021/10/07 17:25:13;;;;;;;4.60;1.20;;;14.50;99.90;;;;;;4975576;28;20214;-77
2021/10/07 17:27:42;;;;;;;2.80;1.23;;;14.50;99.90;;;;;;4975318;28;20238;-76
2021/10/07 17:30:12;;;;;;;4.27;1.13;;;14.40;99.90;;;;;;4975527;28;20207;-77
2021/10/07 17:32:40;;;;;;;3.20;1.13;;;14.40;99.90;;;;;;4975562;28;20207;-76
2021/10/07 17:35:08;;;;;;;1.77;1.20;;;14.30;99.90;;;;;;4975491;28;20203;-77
2021/10/07 17:37:35;;;;;;;4.57;1.60;;;14.30;99.90;;;;;;4975276;28;20312;-77
2021/10/07 17:40:03;;;;;;;4.80;1.90;;;14.30;99.90;;;;;;4975528;28;20215;-75
2021/10/07 17:42:30;;;;;;;2.83;1.37;;;14.30;99.90;;;;;;4975669;28;20235;-77
2021/10/07 17:44:56;;;;;;;10.60;3.30;;;14.20;99.90;;;;;;4975474;28;20237;-78
2021/10/07 17:47:25;;;;;;;3.60;1.73;;;14.00;99.90;;;;;;4975043;28;20227;-76
2021/10/07 17:49:52;;;;;;;6.60;2.00;;;14.00;99.90;;;;;;4974902;28;20204;-77
2021/10/07 17:52:18;;;;;;;5.17;1.93;;;14.00;99.90;;;;;;4975030;28;20214;-77
2021/10/07 17:54:47;;;;;;;7.50;2.63;;;13.90;99.90;;;;;;4975260;28;20214;-75
2021/10/07 17:57:14;;;;;;;5.73;2.90;;;13.80;99.90;;;;;;4975354;28;20314;-77
2021/10/07 17:59:41;;;;;;;7.60;3.13;;;13.90;99.90;;;;;;4975162;28;20211;-75
2021/10/07 18:02:08;;;;;;;6.30;2.60;;;13.80;99.90;;;;;;4975204;28;20203;-77
2021/10/07 18:04:36;;;;;;;8.63;3.10;;;13.80;99.90;;;;;;4974670;28;20207;-76
2021/10/07 18:07:05;;;;;;;5.30;2.83;;;13.70;99.90;;;;;;4974719;28;20223;-77
2021/10/07 18:09:33;;;;;;;5.00;3.20;;;13.70;99.90;;;;;;4974939;28;20215;-76
2021/10/07 18:12:00;;;;;;;5.80;3.30;;;13.50;99.90;;;;;;4974620;28;20207;-77
2021/10/07 18:14:27;;;;;;;6.37;3.63;;;13.50;99.90;;;;;;4974772;28;20221;-77
2021/10/07 18:16:54;;;;;;;4.33;2.83;;;13.30;99.90;;;;;;4974729;28;20246;-76
2021/10/07 18:19:21;;;;;;;3.47;2.50;;;13.30;99.90;;;;;;4974667;28;20207;-77
2021/10/07 18:21:50;;;;;;;7.60;3.00;;;13.40;99.90;;;;;;4968101;28;20677;-76
2021/10/07 18:24:19;;;;;;;4.60;2.97;;;13.30;99.90;;;;;;4952991;28;20240;-76
2021/10/07 18:26:47;;;;;;;4.87;2.50;;;13.20;99.90;;;;;;4966679;28;20226;-75
2021/10/07 18:29:14;;;;;;;5.27;2.90;;;13.20;99.90;;;;;;4962982;28;20208;-76
2021/10/07 18:31:41;;;;;;;4.23;2.77;;;13.20;99.90;;;;;;4955380;28;20207;-76
2021/10/07 18:34:09;;;;;;;6.80;3.00;;;13.20;99.90;;;;;;4974530;28;20211;-76
2021/10/07 18:36:36;;;;;;;4.53;3.03;;;13.10;99.90;;;;;;4974378;28;20235;-77
2021/10/07 18:39:06;;;;;;;8.30;3.00;;;13.10;99.90;;;;;;4974278;28;20208;-76
2021/10/07 18:41:33;;;;;;;4.80;2.70;;;13.10;99.90;;;;;;4961004;28;20204;-77
